Port Elizabeth, South Africa
Current Conditions -  °F | °C
As of 5:00 PM on Friday 31 Oct 2014 (Local Time) from FAPE Reporting Station
Few Clouds Few Clouds  
Wind Chill: 64°   Ceiling: Unl
Heat Index: 64°   Visibility: 6mi
Dew Point: 52°   Wind: 8mph
Humidity: 64%   Direction: 160°SSE
Pressure: 30.18"   Gusts: NA
Location:  33.96°S, 25.59°E
Report Text: FAPE 311500Z 16007KT 130V200 9999 FEW035 18/11 Q1022 NOSIG
Loading
Personal Weather Stations






























Interactive Weather Map
Tropical Storm Tracking
New forecast layout! Learn more

10-Day Weather Forecast

Advertisements
Track Severe Weather on mobile